Time;durP1;ratioP1;P1;durP2;ratioP2;P2;SDS_P1;SDS_P2;PMS_P1;PMS_P2;Temp;Humidity;BMP_temperature;BMP_pressure;BME280_temperature;BME280_humidity;BME280_pressure;Samples;Min_cycle;Max_cycle;Signal;HPM_P1;HPM_P2
2022/07/11 00:00:23;;;;;;;1.77;1.67;;;20.40;69.90;;;;;;6262380;22;20186;-89
2022/07/11 00:02:49;;;;;;;1.73;1.63;;;20.40;70.10;;;;;;6263176;22;20148;-89
2022/07/11 00:05:15;;;;;;;1.50;1.40;;;20.40;70.00;;;;;;6264037;22;20471;-88
2022/07/11 00:07:49;;;;;;;1.45;1.35;;;20.40;70.00;;;;;;6264574;22;20147;-89
2022/07/11 00:10:17;;;;;;;1.50;1.40;;;20.40;70.10;;;;;;6264900;22;20170;-89
2022/07/11 00:12:44;;;;;;;1.73;1.60;;;20.40;70.10;;;;;;6264912;22;20144;-89
2022/07/11 00:15:12;;;;;;;1.63;1.52;;;20.40;70.10;;;;;;6227690;23;20240;-89
2022/07/11 00:17:40;;;;;;;1.48;1.38;;;20.40;70.00;;;;;;6201945;23;20153;-89
2022/07/11 00:20:07;;;;;;;1.40;1.30;;;20.40;70.00;;;;;;6201854;23;20157;-88
2022/07/11 00:22:34;;;;;;;1.55;1.45;;;20.40;70.10;;;;;;6202184;23;20194;-89
2022/07/11 00:25:07;;;;;;;1.70;1.60;;;20.40;70.00;;;;;;6202142;23;20178;-89
2022/07/11 00:27:33;;;;;;;1.55;1.45;;;20.40;70.10;;;;;;6201036;23;20149;-89
2022/07/11 00:29:59;;;;;;;1.77;1.67;;;20.40;70.00;;;;;;6202035;23;20175;-90
2022/07/11 00:32:26;;;;;;;1.40;1.30;;;20.40;70.10;;;;;;6202840;23;20248;-90
2022/07/11 00:34:53;;;;;;;1.60;1.50;;;20.40;69.90;;;;;;6202105;23;20165;-89
2022/07/11 00:37:23;;;;;;;1.48;1.38;;;20.40;70.00;;;;;;6201928;23;20252;-88
2022/07/11 00:39:51;;;;;;;1.60;1.50;;;20.40;70.00;;;;;;6202284;23;20149;-89
2022/07/11 00:42:19;;;;;;;1.60;1.50;;;20.40;69.80;;;;;;6202420;23;20148;-90
2022/07/11 00:44:46;;;;;;;1.70;1.60;;;20.40;70.00;;;;;;6201246;23;20170;-90
2022/07/11 00:47:15;;;;;;;1.70;1.60;;;20.40;69.80;;;;;;6235623;22;20155;-90
2022/07/11 00:49:46;;;;;;;1.60;1.50;;;20.40;70.00;;;;;;6262784;22;20136;-90
2022/07/11 00:52:13;;;;;;;1.50;1.40;;;20.40;69.90;;;;;;6263366;22;20140;-90
2022/07/11 00:54:40;;;;;;;1.60;1.50;;;20.40;69.90;;;;;;6262159;22;20471;-90
2022/07/11 00:57:05;;;;;;;1.50;1.40;;;20.40;70.00;;;;;;6263838;22;20211;-90
2022/07/11 00:59:35;;;;;;;1.50;1.40;;;20.40;70.70;;;;;;6262950;22;20147;-90
2022/07/11 01:02:07;;;;;;;1.60;1.50;;;20.40;70.00;;;;;;6288273;22;20522;-89
2022/07/11 01:04:35;;;;;;;1.50;1.40;;;20.40;69.90;;;;;;6262743;22;20147;-90
2022/07/11 01:07:03;;;;;;;1.40;1.30;;;20.40;69.90;;;;;;6289602;22;20184;-90
2022/07/11 01:09:32;;;;;;;1.50;1.40;;;20.40;69.90;;;;;;6264731;22;20158;-90
2022/07/11 01:11:59;;;;;;;1.52;1.42;;;20.40;69.90;;;;;;6264983;22;20136;-90
2022/07/11 01:14:25;;;;;;;1.33;1.23;;;20.40;69.80;;;;;;6289675;22;20585;-90
2022/07/11 01:16:51;;;;;;;1.55;1.45;;;20.40;69.80;;;;;;6263800;22;20140;-89
2022/07/11 01:19:20;;;;;;;1.60;1.50;;;20.40;69.90;;;;;;6264126;22;20634;-89
2022/07/11 01:21:49;;;;;;;1.60;1.50;;;20.40;69.80;;;;;;6264464;22;20140;-90
2022/07/11 01:24:19;;;;;;;1.70;1.60;;;20.40;69.90;;;;;;6288964;22;20132;-90
2022/07/11 01:26:45;;;;;;;1.52;1.42;;;20.40;69.80;;;;;;6264499;22;20140;-90
2022/07/11 01:29:12;;;;;;;1.60;1.50;;;20.40;69.80;;;;;;6263945;22;20148;-90
2022/07/11 01:31:42;;;;;;;1.70;1.60;;;20.40;69.70;;;;;;6172810;23;20176;-90
2022/07/11 01:34:07;;;;;;;1.52;1.42;;;20.40;69.70;;;;;;6196920;23;20596;-90
2022/07/11 01:36:33;;;;;;;1.63;1.52;;;20.40;69.70;;;;;;6196629;23;20205;-89
2022/07/11 01:38:59;;;;;;;1.50;1.40;;;20.40;69.70;;;;;;6197469;23;20208;-90
2022/07/11 01:41:26;;;;;;;1.40;1.30;;;20.40;69.80;;;;;;6196853;23;20185;-90
2022/07/11 01:43:53;;;;;;;1.50;1.40;;;20.40;69.70;;;;;;6196780;23;20208;-90
2022/07/11 01:46:19;;;;;;;1.50;1.40;;;20.40;69.70;;;;;;6196850;23;20186;-90
2022/07/11 01:48:46;;;;;;;1.60;1.50;;;20.40;69.70;;;;;;6196828;23;20178;-90
2022/07/11 01:51:12;;;;;;;1.50;1.40;;;20.40;69.70;;;;;;6196780;23;20169;-90
2022/07/11 01:53:39;;;;;;;1.30;1.20;;;20.40;69.70;;;;;;6197026;23;20543;-90
2022/07/11 01:56:05;;;;;;;1.58;1.48;;;20.40;69.70;;;;;;6172134;23;20150;-90
2022/07/11 01:58:31;;;;;;;1.60;1.50;;;20.40;69.70;;;;;;6171973;23;20150;-90
2022/07/11 02:00:58;;;;;;;1.40;1.30;;;20.40;69.70;;;;;;6162304;23;20218;-90
2022/07/11 02:03:23;;;;;;;1.70;1.60;;;20.40;69.70;;;;;;6143447;23;20183;-90
2022/07/11 02:05:50;;;;;;;1.67;1.58;;;20.40;69.60;;;;;;6167026;23;20182;-89
2022/07/11 02:08:19;;;;;;;1.52;1.42;;;20.40;69.50;;;;;;6166985;23;20618;-92
2022/07/11 02:10:48;;;;;;;1.70;1.60;;;20.40;69.60;;;;;;6166908;23;20617;-88
2022/07/11 02:13:19;;;;;;;1.48;1.38;;;20.40;69.60;;;;;;6166890;23;20218;-90
2022/07/11 02:15:47;;;;;;;1.65;1.55;;;20.40;70.50;;;;;;6168270;23;20228;-88
2022/07/11 02:18:14;;;;;;;1.70;1.60;;;20.40;69.70;;;;;;6176884;23;20188;-89
2022/07/11 02:20:41;;;;;;;1.58;1.48;;;20.40;69.60;;;;;;6173607;23;20154;-89
2022/07/11 02:23:08;;;;;;;1.40;1.30;;;20.40;69.60;;;;;;6173744;23;20150;-90
2022/07/11 02:25:38;;;;;;;1.50;1.40;;;20.40;69.60;;;;;;6173300;23;20214;-89
2022/07/11 02:28:08;;;;;;;1.80;1.70;;;20.40;69.60;;;;;;6175256;23;20593;-89
2022/07/11 02:30:35;;;;;;;1.50;1.40;;;20.40;69.60;;;;;;6174060;23;20150;-89
2022/07/11 02:33:01;;;;;;;1.65;1.40;;;20.40;69.60;;;;;;6231879;22;20172;-89
2022/07/11 02:35:31;;;;;;;1.80;1.70;;;20.40;69.60;;;;;;6234356;22;20155;-90
2022/07/11 02:37:57;;;;;;;1.50;1.40;;;20.40;69.60;;;;;;6234243;22;20200;-90
2022/07/11 02:40:27;;;;;;;1.73;1.63;;;20.40;69.60;;;;;;6234371;22;20192;-89
2022/07/11 02:42:59;;;;;;;1.40;1.30;;;20.40;69.50;;;;;;6260383;22;20159;-91
2022/07/11 02:45:29;;;;;;;1.70;1.60;;;20.40;69.50;;;;;;6259408;22;20644;-89
2022/07/11 02:47:58;;;;;;;1.77;1.67;;;20.40;69.50;;;;;;6185090;22;20148;-90
2022/07/11 02:50:31;;;;;;;1.60;1.50;;;20.40;69.40;;;;;;6236776;22;20148;-89
2022/07/11 02:52:57;;;;;;;1.45;1.35;;;20.40;69.40;;;;;;6287930;22;20156;-90
2022/07/11 02:55:29;;;;;;;1.67;1.58;;;20.40;69.40;;;;;;6261658;22;20148;-90
2022/07/11 02:57:57;;;;;;;1.75;1.65;;;20.40;69.40;;;;;;6262192;22;20153;-90
2022/07/11 03:00:23;;;;;;;1.75;1.65;;;20.40;69.40;;;;;;6230864;23;20161;-88
2022/07/11 03:03:01;;;;;;;1.75;1.65;;;20.40;69.40;;;;;;6196463;23;20162;-89
2022/07/11 03:05:32;;;;;;;1.45;1.38;;;20.40;69.40;;;;;;6172495;23;20185;-89
2022/07/11 03:08:03;;;;;;;1.63;1.52;;;20.40;69.30;;;;;;6083284;23;20148;-89
2022/07/11 03:10:32;;;;;;;1.83;1.42;;;20.40;69.30;;;;;;6107130;23;20152;-89
2022/07/11 03:12:58;;;;;;;1.40;1.30;;;20.40;69.30;;;;;;6049529;23;20617;-89
2022/07/11 03:15:28;;;;;;;1.50;1.40;;;20.40;69.30;;;;;;6001909;23;20158;-90
2022/07/11 03:17:57;;;;;;;1.52;1.42;;;20.40;69.10;;;;;;6001284;23;20161;-89
2022/07/11 03:20:34;;;;;;;1.50;1.40;;;20.40;69.10;;;;;;6026246;23;20502;-89
2022/07/11 03:23:10;;;;;;;1.58;1.48;;;20.40;69.00;;;;;;5998620;23;20169;-89
2022/07/11 03:25:40;;;;;;;1.40;1.30;;;20.50;68.90;;;;;;5965534;24;20638;-89
2022/07/11 03:28:07;;;;;;;1.40;1.30;;;20.50;69.00;;;;;;5937518;24;20160;-89
2022/07/11 03:30:44;;;;;;;1.58;1.48;;;20.50;68.90;;;;;;5937394;24;20157;-90
2022/07/11 03:33:26;;;;;;;;;;;;;;;;;;;;;
2022/07/11 03:35:56;;;;;;;1.42;1.33;;;20.50;68.90;;;;;;5935095;24;20180;-89
2022/07/11 03:38:27;;;;;;;1.60;1.50;;;20.50;68.80;;;;;;5943817;24;20167;-88
2022/07/11 03:41:00;;;;;;;1.48;1.38;;;20.50;68.90;;;;;;5944345;24;20164;-89
2022/07/11 03:43:35;;;;;;;1.50;1.40;;;20.50;68.70;;;;;;5958627;24;20605;-89
2022/07/11 03:46:05;;;;;;;1.48;1.38;;;20.50;68.60;;;;;;5959468;24;20238;-89
2022/07/11 03:48:38;;;;;;;1.42;1.33;;;20.50;68.80;;;;;;5983224;23;20157;-88
2022/07/11 03:51:09;;;;;;;1.50;1.40;;;20.50;68.50;;;;;;5987834;24;20160;-89
2022/07/11 03:53:50;;;;;;;1.40;1.30;;;20.60;68.60;;;;;;6021602;23;20241;-89
2022/07/11 03:56:30;;;;;;;1.52;1.42;;;20.50;68.30;;;;;;5975913;24;20158;-89
2022/07/11 03:59:06;;;;;;;1.33;1.23;;;20.60;68.50;;;;;;5950797;24;20159;-89
2022/07/11 04:01:54;;;;;;;1.50;1.40;;;20.60;68.30;;;;;;5904597;24;20196;-90
2022/07/11 04:04:26;;;;;;;1.40;1.30;;;20.60;68.30;;;;;;5923352;24;20666;-89
2022/07/11 04:06:54;;;;;;;1.50;1.40;;;20.60;68.30;;;;;;5905116;24;20158;-90
2022/07/11 04:09:35;;;;;;;1.35;1.25;;;20.60;68.00;;;;;;5853102;24;20159;-90
2022/07/11 04:12:07;;;;;;;1.55;1.40;;;20.60;67.90;;;;;;5851605;24;20159;-90
2022/07/11 04:14:52;;;;;;;1.30;1.20;;;20.70;67.90;;;;;;5850388;24;20249;-90
2022/07/11 04:17:38;;;;;;;1.25;1.17;;;20.70;67.90;;;;;;5846962;24;20220;-90
2022/07/11 04:20:30;;;;;;;1.35;1.25;;;20.70;67.80;;;;;;5777601;24;20277;-89
2022/07/11 04:23:21;;;;;;;1.40;1.30;;;20.70;67.60;;;;;;5781290;24;20187;-90
2022/07/11 04:26:23;;;;;;;1.50;1.40;;;20.70;67.50;;;;;;5804499;24;20202;-89
2022/07/11 04:29:17;;;;;;;1.73;1.55;;;20.80;67.60;;;;;;5830402;24;20174;-89
2022/07/11 04:32:08;;;;;;;2.20;1.20;;;20.90;67.40;;;;;;5826982;24;20167;-89
2022/07/11 04:34:50;;;;;;;;;;;;;;;;;;;;;
2022/07/11 04:37:39;;;;;;;1.40;1.30;;;20.80;67.10;;;;;;5861016;24;20226;-89
2022/07/11 04:40:20;;;;;;;1.30;1.20;;;20.90;67.00;;;;;;5894752;24;20161;-89
2022/07/11 04:43:09;;;;;;;1.73;1.58;;;20.90;67.00;;;;;;5888330;24;20244;-90
2022/07/11 04:45:43;;;;;;;1.30;1.20;;;20.90;67.20;;;;;;5946870;24;20188;-89
2022/07/11 04:48:20;;;;;;;1.35;1.25;;;20.90;66.90;;;;;;5966005;24;20699;-89
2022/07/11 04:51:04;;;;;;;1.40;1.30;;;20.90;66.80;;;;;;5998203;23;20212;-89
2022/07/11 04:53:47;;;;;;;1.20;1.10;;;20.90;66.70;;;;;;5956418;24;20164;-89
2022/07/11 04:56:30;;;;;;;1.38;1.27;;;20.90;66.70;;;;;;5983138;24;20187;-89
2022/07/11 04:59:22;;;;;;;1.42;1.27;;;20.90;66.70;;;;;;5952822;24;20156;-89
2022/07/11 05:02:17;;;;;;;1.42;1.33;;;20.90;66.90;;;;;;5970620;24;20560;-90
2022/07/11 05:05:14;;;;;;;;;;;;;;;;;;;;;
2022/07/11 05:07:45;;;;;;;1.13;1.10;;;20.90;67.00;;;;;;6022325;23;20174;-89
2022/07/11 05:10:51;;;;;;;1.58;1.48;;;20.90;66.80;;;;;;5882797;24;20163;-89
2022/07/11 05:13:39;;;;;;;1.50;1.40;;;21.00;66.80;;;;;;5813712;24;20236;-89
2022/07/11 05:16:20;;;;;;;;;;;;;;;;;;;;;
2022/07/11 05:18:52;;;;;;;1.50;1.40;;;21.00;66.70;;;;;;5756713;24;20203;-89
2022/07/11 05:21:27;;;;;;;1.23;1.13;;;21.00;66.60;;;;;;5781635;24;20164;-89
2022/07/11 05:24:09;;;;;;;1.33;1.23;;;21.00;66.50;;;;;;5780675;24;20164;-90
2022/07/11 05:26:53;;;;;;;1.30;1.20;;;21.00;66.60;;;;;;5824794;24;20219;-90
2022/07/11 05:29:45;;;;;;;1.35;1.25;;;21.00;66.50;;;;;;5838098;24;20584;-89
2022/07/11 05:32:48;;;;;;;1.23;1.13;;;21.00;66.40;;;;;;5825603;24;20164;-89
2022/07/11 05:35:51;;;;;;;1.30;1.20;;;21.10;67.30;;;;;;5871384;24;20188;-89
2022/07/11 05:38:46;;;;;;;1.10;1.10;;;21.10;66.30;;;;;;5818228;24;20203;-89
2022/07/11 05:41:29;;;;;;;1.15;1.05;;;21.10;66.30;;;;;;5777900;24;20199;-89
2022/07/11 05:44:27;;;;;;;1.40;1.30;;;21.10;66.30;;;;;;5795883;24;20292;-89
2022/07/11 05:47:01;;;;;;;1.17;1.17;;;21.10;66.00;;;;;;5835197;24;20192;-89
2022/07/11 05:49:33;;;;;;;1.25;1.15;;;21.20;66.10;;;;;;5834193;24;20159;-89
2022/07/11 05:52:10;;;;;;;1.40;1.30;;;21.20;66.00;;;;;;5834883;24;20170;-88
2022/07/11 05:54:51;;;;;;;1.40;1.30;;;21.20;65.30;;;;;;5850886;24;20159;-89
2022/07/11 05:57:25;;;;;;;1.10;1.10;;;21.20;65.80;;;;;;5811827;24;20161;-91
2022/07/11 06:00:21;;;;;;;;;;;;;;;;;;;;;
2022/07/11 06:02:55;;;;;;;1.40;1.30;;;21.20;65.60;;;;;;5793318;24;20176;-89
2022/07/11 06:05:31;;;;;;;1.13;1.05;;;21.30;65.50;;;;;;5825358;24;20188;-90
2022/07/11 06:11:32;;;;;;;;;;;;;;;;;;;;;
2022/07/11 06:14:11;;;;;;;1.23;1.10;;;21.30;65.40;;;;;;5824889;24;20183;-89
2022/07/11 06:16:45;;;;;;;0.98;0.98;;;21.30;65.30;;;;;;5829070;24;20241;-89
2022/07/11 06:19:29;;;;;;;1.45;1.35;;;21.30;65.10;;;;;;5829324;24;20155;-90
2022/07/11 06:22:06;;;;;;;0.95;0.95;;;21.40;65.00;;;;;;5821620;24;20549;-89
2022/07/11 06:25:03;;;;;;;1.35;1.25;;;21.40;65.10;;;;;;5830331;24;20164;-89
2022/07/11 06:27:36;;;;;;;1.23;1.13;;;21.30;65.00;;;;;;5851624;24;20170;-89
2022/07/11 06:30:11;;;;;;;1.00;1.00;;;21.50;65.00;;;;;;5867254;24;20166;-89
2022/07/11 06:32:46;;;;;;;1.30;1.20;;;21.40;64.90;;;;;;5878425;24;20164;-89
2022/07/11 06:35:40;;;;;;;;;;;;;;;;;;;;;
2022/07/11 06:38:17;;;;;;;1.23;1.13;;;21.40;64.80;;;;;;5878419;24;20240;-90
2022/07/11 06:40:46;;;;;;;1.10;1.02;;;21.50;64.80;;;;;;5872961;24;20620;-89
2022/07/11 06:43:18;;;;;;;1.27;1.17;;;21.50;64.70;;;;;;5828035;24;20241;-90
2022/07/11 06:45:47;;;;;;;1.25;1.17;;;21.40;64.80;;;;;;5852538;24;20198;-89
2022/07/11 06:48:21;;;;;;;1.33;1.23;;;21.40;64.80;;;;;;5873519;24;20226;-89
2022/07/11 06:50:50;;;;;;;1.17;1.10;;;21.50;65.00;;;;;;5856437;24;20244;-89
2022/07/11 06:53:19;;;;;;;1.25;1.20;;;21.50;64.60;;;;;;5878065;24;20207;-89
2022/07/11 06:55:51;;;;;;;1.20;1.10;;;21.50;64.50;;;;;;5905760;24;20161;-89
2022/07/11 06:58:35;;;;;;;1.10;1.00;;;21.50;64.40;;;;;;5933871;24;20160;-89
2022/07/11 07:01:03;;;;;;;0.93;0.93;;;21.50;64.30;;;;;;5953943;24;20173;-90
2022/07/11 07:03:34;;;;;;;1.20;1.17;;;21.50;64.50;;;;;;5978762;23;20217;-89
2022/07/11 07:06:01;;;;;;;1.20;1.10;;;21.50;64.40;;;;;;5939579;24;20187;-90
2022/07/11 07:08:28;;;;;;;1.20;1.10;;;21.50;64.40;;;;;;5932379;24;20163;-90
2022/07/11 07:10:56;;;;;;;1.15;1.15;;;21.50;64.30;;;;;;5994355;23;20230;-89
2022/07/11 07:13:25;;;;;;;1.10;1.00;;;21.60;64.20;;;;;;5993260;23;20155;-91
2022/07/11 07:15:52;;;;;;;1.10;1.10;;;21.60;64.10;;;;;;5991793;23;20210;-90
2022/07/11 07:18:20;;;;;;;1.35;1.25;;;21.50;63.90;;;;;;5999281;23;20244;-90
2022/07/11 07:20:48;;;;;;;0.95;0.95;;;21.50;64.00;;;;;;6062792;23;20152;-90
2022/07/11 07:23:16;;;;;;;1.15;1.05;;;21.50;64.00;;;;;;6145583;23;20158;-89
2022/07/11 07:25:42;;;;;;;1.20;1.13;;;21.50;64.10;;;;;;6171555;23;20186;-90
2022/07/11 07:28:09;;;;;;;1.15;1.13;;;21.50;64.20;;;;;;6148177;23;20146;-90
2022/07/11 07:30:35;;;;;;;1.05;1.00;;;21.50;64.00;;;;;;6198519;23;20179;-90
2022/07/11 07:33:01;;;;;;;1.00;1.00;;;21.50;64.00;;;;;;6142823;23;20170;-90
2022/07/11 07:35:34;;;;;;;1.00;1.00;;;21.50;63.90;;;;;;6165275;23;20155;-89
2022/07/11 07:38:01;;;;;;;1.30;1.20;;;21.50;63.80;;;;;;6189205;23;20190;-89
2022/07/11 07:40:28;;;;;;;1.00;1.00;;;21.50;63.80;;;;;;6172729;23;20158;-90
2022/07/11 07:42:57;;;;;;;0.98;0.98;;;21.60;63.60;;;;;;6172670;23;20221;-89
2022/07/11 07:45:24;;;;;;;1.00;1.00;;;21.50;63.50;;;;;;6198029;23;20320;-91
2022/07/11 07:47:50;;;;;;;0.90;0.90;;;21.60;63.60;;;;;;6199137;23;20249;-89
2022/07/11 07:50:34;;;;;;;1.00;1.00;;;21.60;63.50;;;;;;6200348;23;20517;-90
2022/07/11 07:52:59;;;;;;;1.10;1.00;;;21.60;63.40;;;;;;6199552;23;20592;-90
2022/07/11 07:55:25;;;;;;;0.98;0.98;;;21.60;63.40;;;;;;6195373;23;20154;-90
2022/07/11 07:57:52;;;;;;;1.30;1.20;;;21.70;63.10;;;;;;6171000;23;20481;-90
2022/07/11 08:03:08;;;;;;;0.90;0.90;;;21.70;63.60;;;;;;6206434;22;20142;-90
2022/07/11 08:05:35;;;;;;;1.33;1.23;;;21.70;62.80;;;;;;6258783;22;20173;-89
2022/07/11 08:08:01;;;;;;;1.10;1.10;;;21.70;62.90;;;;;;6195073;23;20154;-91
2022/07/11 08:10:26;;;;;;;0.90;0.90;;;21.70;62.90;;;;;;6170681;23;20231;-90
2022/07/11 08:13:01;;;;;;;1.85;1.10;;;21.70;63.00;;;;;;6172425;23;20166;-90
2022/07/11 08:15:35;;;;;;;0.95;0.95;;;21.70;62.90;;;;;;6198431;23;20146;-90
2022/07/11 08:18:02;;;;;;;0.90;0.90;;;21.70;63.00;;;;;;6132288;23;20188;-90
2022/07/11 08:20:33;;;;;;;1.05;1.00;;;21.70;62.80;;;;;;6106647;23;20536;-90
2022/07/11 08:23:03;;;;;;;0.93;0.93;;;21.70;62.60;;;;;;6107609;23;20156;-88
2022/07/11 08:25:33;;;;;;;1.00;1.00;;;21.70;62.80;;;;;;6110483;23;20183;-88
2022/07/11 08:28:03;;;;;;;1.08;1.08;;;21.70;62.80;;;;;;6112275;23;20148;-89
2022/07/11 08:30:28;;;;;;;0.85;0.85;;;21.70;62.80;;;;;;6113229;23;20549;-90
2022/07/11 08:32:57;;;;;;;0.93;0.93;;;21.60;62.70;;;;;;6086330;23;20159;-90
2022/07/11 08:35:31;;;;;;;1.13;1.10;;;21.70;62.70;;;;;;6088457;23;20152;-88
2022/07/11 08:38:03;;;;;;;1.10;1.00;;;21.70;62.50;;;;;;6151401;23;20227;-89
2022/07/11 08:40:32;;;;;;;0.90;0.90;;;21.70;62.40;;;;;;6134967;23;20152;-90
2022/07/11 08:43:05;;;;;;;1.23;1.13;;;21.70;62.30;;;;;;6164672;23;20508;-89
2022/07/11 08:45:36;;;;;;;0.98;0.98;;;21.70;62.20;;;;;;6171063;23;20231;-89
2022/07/11 08:48:26;;;;;;;0.82;0.82;;;21.80;62.20;;;;;;6188478;23;20170;-90
2022/07/11 08:51:00;;;;;;;1.15;1.05;;;21.80;62.10;;;;;;6086117;23;20230;-90
2022/07/11 08:53:31;;;;;;;1.17;1.13;;;21.70;62.20;;;;;;6133651;23;20148;-89
2022/07/11 08:56:01;;;;;;;0.75;0.75;;;21.70;62.10;;;;;;6103386;23;20167;-89
2022/07/11 08:58:35;;;;;;;0.98;0.98;;;21.70;62.30;;;;;;6135529;23;20152;-89
2022/07/11 09:01:03;;;;;;;1.20;1.10;;;21.70;61.90;;;;;;6086187;23;20160;-89
2022/07/11 09:03:29;;;;;;;1.70;1.10;;;21.80;61.80;;;;;;6107675;23;20156;-89
2022/07/11 09:05:58;;;;;;;1.00;1.00;;;21.80;61.60;;;;;;6109937;23;20621;-89
2022/07/11 09:08:24;;;;;;;0.88;0.88;;;21.80;61.60;;;;;;6157785;23;20211;-89
2022/07/11 09:11:00;;;;;;;0.95;0.95;;;21.80;61.50;;;;;;6157506;23;20148;-89
2022/07/11 09:13:30;;;;;;;0.98;0.98;;;21.80;61.30;;;;;;6107296;23;20317;-90
2022/07/11 09:16:01;;;;;;;0.90;0.90;;;21.90;61.20;;;;;;6076633;23;20157;-89
2022/07/11 09:18:30;;;;;;;0.85;0.85;;;21.80;61.20;;;;;;6087664;23;20164;-89
2022/07/11 09:26:21;;;;;;;0.98;0.98;;;21.90;60.90;;;;;;6146573;23;20605;-90
2022/07/11 09:29:11;;;;;;;0.90;0.90;;;21.90;60.80;;;;;;6142958;23;20692;-91
2022/07/11 09:31:42;;;;;;;1.00;1.00;;;21.90;60.90;;;;;;6194416;23;20158;-90
2022/07/11 09:34:14;;;;;;;0.88;0.88;;;21.90;61.80;;;;;;6143305;23;20143;-90
2022/07/11 09:36:49;;;;;;;0.98;0.98;;;21.90;60.90;;;;;;6181095;22;20269;-90
2022/07/11 09:39:18;;;;;;;1.10;1.00;;;21.90;60.90;;;;;;6259819;22;20182;-90
2022/07/11 09:41:46;;;;;;;0.90;0.90;;;21.90;60.90;;;;;;6258858;22;20152;-90
2022/07/11 09:44:20;;;;;;;0.90;0.90;;;21.80;60.70;;;;;;6287314;22;20147;-88
2022/07/11 09:46:53;;;;;;;0.95;0.95;;;21.90;60.60;;;;;;6263848;22;20179;-91
2022/07/11 09:49:34;;;;;;;0.93;0.93;;;21.80;60.60;;;;;;6262677;22;20144;-89
2022/07/11 09:52:29;;;;;;;0.80;0.80;;;21.90;60.50;;;;;;6288315;22;20143;-89
2022/07/11 09:55:00;;;;;;;1.23;0.90;;;21.90;60.40;;;;;;6253880;22;20156;-90
2022/07/11 09:57:33;;;;;;;0.80;0.80;;;21.80;60.30;;;;;;6257773;22;20149;-89
2022/07/11 10:00:00;;;;;;;1.00;1.00;;;21.80;60.50;;;;;;6231726;22;20216;-89
2022/07/11 10:02:32;;;;;;;0.80;0.80;;;21.80;60.60;;;;;;6231085;22;20160;-90
2022/07/11 10:05:00;;;;;;;1.17;1.08;;;21.80;60.60;;;;;;6231581;22;20226;-90
2022/07/11 10:07:31;;;;;;;0.90;0.90;;;21.80;60.30;;;;;;6231204;22;20148;-90
2022/07/11 10:10:06;;;;;;;0.80;0.80;;;21.80;60.20;;;;;;6146808;23;20156;-89
2022/07/11 10:12:37;;;;;;;1.10;1.10;;;21.90;59.90;;;;;;6197112;23;20141;-90
2022/07/11 10:15:08;;;;;;;0.90;0.90;;;21.80;59.90;;;;;;6196788;23;20153;-90
2022/07/11 10:18:10;;;;;;;0.88;0.88;;;21.90;59.80;;;;;;6197900;23;20544;-89
2022/07/11 10:20:57;;;;;;;0.88;0.88;;;21.80;59.80;;;;;;6205493;23;20154;-89
2022/07/11 10:23:47;;;;;;;0.80;0.80;;;21.80;60.60;;;;;;6197977;23;20208;-90
2022/07/11 10:26:32;;;;;;;0.80;0.80;;;21.90;59.80;;;;;;6224965;22;20184;-89
2022/07/11 10:29:07;;;;;;;0.77;0.77;;;21.90;59.80;;;;;;6257532;22;20149;-90
2022/07/11 10:31:35;;;;;;;0.80;0.80;;;21.90;59.90;;;;;;6258273;22;20152;-89
2022/07/11 10:34:06;;;;;;;0.80;0.80;;;21.90;60.00;;;;;;6257479;22;20529;-90
2022/07/11 10:36:42;;;;;;;0.82;0.82;;;21.90;60.00;;;;;;6199521;23;20203;-90
2022/07/11 10:39:24;;;;;;;0.90;0.90;;;21.90;59.80;;;;;;6126909;23;20152;-90
2022/07/11 10:41:50;;;;;;;0.82;0.82;;;21.90;59.70;;;;;;6103780;23;20160;-90
2022/07/11 10:44:17;;;;;;;0.90;0.90;;;21.90;59.60;;;;;;6103658;23;20163;-90
2022/07/11 10:46:44;;;;;;;0.90;0.90;;;21.90;59.50;;;;;;6102926;23;20184;-90
2022/07/11 10:49:22;;;;;;;1.00;0.95;;;21.90;59.60;;;;;;6102586;23;20157;-90
2022/07/11 10:52:04;;;;;;;0.98;0.98;;;21.90;59.50;;;;;;6101939;23;20160;-89
2022/07/11 10:54:51;;;;;;;0.93;0.93;;;21.90;59.50;;;;;;6127536;23;20247;-91
2022/07/11 10:57:53;;;;;;;0.80;0.80;;;21.90;59.60;;;;;;6125970;23;20157;-91
2022/07/11 11:00:21;;;;;;;0.70;0.70;;;21.90;59.60;;;;;;6099217;23;20184;-90
2022/07/11 11:03:08;;;;;;;0.88;0.88;;;21.90;59.50;;;;;;6098782;23;20161;-90
2022/07/11 11:05:47;;;;;;;1.45;1.00;;;21.90;59.40;;;;;;6123250;23;20208;-91
2022/07/11 11:08:42;;;;;;;0.88;0.88;;;22.00;59.40;;;;;;6147615;23;20156;-90
2022/07/11 11:11:24;;;;;;;0.90;0.90;;;22.00;59.50;;;;;;6244524;22;20239;-90
2022/07/11 11:14:20;;;;;;;1.95;1.20;;;21.90;59.50;;;;;;6280478;22;20145;-90
2022/07/11 11:16:48;;;;;;;0.90;0.90;;;21.90;59.60;;;;;;6254897;22;20148;-90
2022/07/11 11:19:54;;;;;;;1.20;1.10;;;21.90;59.70;;;;;;6230073;22;20224;-91
2022/07/11 11:22:22;;;;;;;0.93;0.93;;;21.90;59.70;;;;;;6279436;22;20156;-89
2022/07/11 11:24:52;;;;;;;0.95;0.88;;;21.90;59.60;;;;;;6229416;22;20145;-90
2022/07/11 11:27:21;;;;;;;1.20;1.00;;;21.90;59.40;;;;;;6229549;22;20145;-91
2022/07/11 11:29:50;;;;;;;0.80;0.80;;;22.00;59.40;;;;;;6229879;22;20144;-90
2022/07/11 11:32:16;;;;;;;1.00;1.00;;;21.90;59.40;;;;;;6254444;22;20557;-90
2022/07/11 11:34:41;;;;;;;0.90;0.90;;;22.00;59.40;;;;;;6229050;22;20156;-90
2022/07/11 11:37:07;;;;;;;0.93;0.93;;;22.00;59.40;;;;;;6253641;22;20184;-90
2022/07/11 11:39:38;;;;;;;0.93;0.93;;;21.90;59.40;;;;;;6254333;22;20148;-92
2022/07/11 11:42:06;;;;;;;0.80;0.80;;;22.00;59.30;;;;;;6254972;22;20149;-91
2022/07/11 11:44:33;;;;;;;0.90;0.90;;;22.00;59.20;;;;;;6222157;23;20152;-90
2022/07/11 11:47:03;;;;;;;0.80;0.80;;;22.00;59.20;;;;;;6221677;23;20638;-90
2022/07/11 11:49:41;;;;;;;1.00;1.00;;;22.00;59.20;;;;;;6221716;23;20477;-90
2022/07/11 11:52:06;;;;;;;0.90;0.90;;;22.00;59.20;;;;;;6222314;23;20495;-91
2022/07/11 11:54:34;;;;;;;0.95;0.95;;;22.00;59.30;;;;;;6221953;23;20153;-91
2022/07/11 11:57:07;;;;;;;0.90;0.90;;;22.00;59.40;;;;;;6222101;23;20157;-91
2022/07/11 11:59:33;;;;;;;0.90;0.90;;;22.00;59.40;;;;;;6221787;23;20252;-90
2022/07/11 12:01:58;;;;;;;0.90;0.90;;;22.00;59.40;;;;;;6222013;23;20181;-91
2022/07/11 12:05:11;;;;;;;1.00;1.00;;;22.00;59.40;;;;;;6221613;23;20153;-91
2022/07/11 12:07:26;;;;;;;1.23;1.13;;;22.00;59.40;;;;;;6204860;23;20174;-89
2022/07/11 12:10:06;;;;;;;0.88;0.88;;;22.00;59.30;;;;;;6159449;23;20159;-89
2022/07/11 12:15:31;;;;;;;0.80;0.80;;;22.00;59.40;;;;;;6148242;23;20234;-90
2022/07/11 12:18:03;;;;;;;0.80;0.80;;;22.00;59.50;;;;;;6117688;23;20155;-89
2022/07/11 12:20:38;;;;;;;0.95;0.95;;;22.10;59.40;;;;;;6141145;23;20159;-89
2022/07/11 12:23:06;;;;;;;1.10;1.00;;;22.10;59.30;;;;;;6118106;23;20150;-89
2022/07/11 12:25:32;;;;;;;0.90;0.90;;;22.10;59.30;;;;;;6090227;23;20183;-90
2022/07/11 12:28:07;;;;;;;1.10;1.00;;;22.10;59.20;;;;;;6131057;23;20707;-90
2022/07/11 12:30:55;;;;;;;0.93;0.90;;;22.10;59.30;;;;;;6114450;23;20490;-91
2022/07/11 12:33:29;;;;;;;1.10;1.00;;;22.10;59.30;;;;;;6083217;23;20329;-91
2022/07/11 12:35:59;;;;;;;0.85;0.80;;;22.10;59.40;;;;;;6131001;23;20146;-91
2022/07/11 12:38:26;;;;;;;1.08;1.08;;;22.00;59.60;;;;;;6148501;23;20676;-89
2022/07/11 12:41:01;;;;;;;1.20;1.10;;;22.10;59.60;;;;;;6165781;23;20162;-90
2022/07/11 12:46:24;;;;;;;0.95;0.90;;;22.10;59.20;;;;;;6222897;23;20166;-89
2022/07/11 12:48:51;;;;;;;0.95;0.95;;;22.10;59.20;;;;;;6196720;23;20160;-91
2022/07/11 12:51:29;;;;;;;1.08;1.08;;;22.20;59.20;;;;;;6196795;23;20232;-90
2022/07/11 12:54:02;;;;;;;0.93;0.93;;;22.20;59.30;;;;;;6222367;23;20159;-90
2022/07/11 12:56:32;;;;;;;1.08;1.08;;;22.20;59.30;;;;;;6196799;23;20149;-89
2022/07/11 12:58:59;;;;;;;1.27;1.17;;;22.20;60.00;;;;;;6222701;23;20150;-90
2022/07/11 13:01:25;;;;;;;1.20;1.10;;;22.10;59.30;;;;;;6196368;23;20261;-91
2022/07/11 13:03:51;;;;;;;1.00;1.00;;;22.10;59.50;;;;;;6220664;23;20149;-89
2022/07/11 13:08:41;;;;;;;1.10;1.02;;;22.10;59.50;;;;;;6195508;23;20177;-89
2022/07/11 13:09:05;;;;;;;0.80;0.80;;;22.10;59.50;;;;;;6225001;23;20667;-91
2022/07/11 13:11:32;;;;;;;1.73;0.98;;;22.10;59.60;;;;;;6196106;23;20141;-90
2022/07/11 13:13:58;;;;;;;1.05;1.05;;;22.10;59.50;;;;;;6195093;23;20180;-92
2022/07/11 13:16:25;;;;;;;1.23;1.15;;;22.20;59.50;;;;;;6196553;23;20492;-89
2022/07/11 13:18:52;;;;;;;1.20;1.10;;;22.20;59.50;;;;;;6195369;23;20149;-90
2022/07/11 13:21:18;;;;;;;1.00;1.00;;;22.20;59.40;;;;;;6195212;23;20145;-91
2022/07/11 13:23:44;;;;;;;0.95;0.95;;;22.30;59.40;;;;;;6195285;23;20164;-91
2022/07/11 13:26:10;;;;;;;1.15;1.15;;;22.20;59.40;;;;;;6195180;23;20227;-91
2022/07/11 13:28:36;;;;;;;1.10;1.00;;;22.20;59.50;;;;;;6197243;23;20149;-88
2022/07/11 13:31:05;;;;;;;1.00;1.00;;;22.20;59.30;;;;;;6222082;23;20126;-89
2022/07/11 13:33:34;;;;;;;1.10;1.10;;;22.10;59.50;;;;;;6198154;23;20157;-90
2022/07/11 13:36:00;;;;;;;1.10;1.10;;;22.10;59.50;;;;;;6222679;23;20177;-89
2022/07/11 13:38:26;;;;;;;1.33;1.23;;;22.10;59.50;;;;;;6217973;22;20242;-90
2022/07/11 13:40:53;;;;;;;1.00;1.00;;;22.10;59.50;;;;;;6278707;22;20553;-90
2022/07/11 13:43:18;;;;;;;1.05;1.05;;;22.10;59.40;;;;;;6279405;22;20136;-91